sensor_id;sensor_type;location;lat;lon;timestamp;pressure;altitude;pressure_sealevel;temperature;humidity
76726;BME280;65651;53.154;17.916;2023-02-23T00:02:06;101416.84;;;-1.74;67.79
76726;BME280;65651;53.154;17.916;2023-02-23T00:04:34;101414.00;;;-1.73;67.85
76726;BME280;65651;53.154;17.916;2023-02-23T00:07:04;101413.02;;;-1.76;67.77
76726;BME280;65651;53.154;17.916;2023-02-23T00:09:32;101409.02;;;-1.77;67.81
76726;BME280;65651;53.154;17.916;2023-02-23T00:12:05;101408.58;;;-1.80;68.23
76726;BME280;65651;53.154;17.916;2023-02-23T00:14:38;101409.02;;;-1.82;68.31
76726;BME280;65651;53.154;17.916;2023-02-23T00:17:06;101405.72;;;-1.84;68.16
76726;BME280;65651;53.154;17.916;2023-02-23T00:19:40;101405.79;;;-1.86;68.20
76726;BME280;65651;53.154;17.916;2023-02-23T00:22:09;101402.66;;;-1.87;68.29
76726;BME280;65651;53.154;17.916;2023-02-23T00:24:40;101404.27;;;-1.89;68.26
76726;BME280;65651;53.154;17.916;2023-02-23T00:27:13;101400.57;;;-1.88;68.47
76726;BME280;65651;53.154;17.916;2023-02-23T00:29:44;101400.23;;;-1.88;68.48
76726;BME280;65651;53.154;17.916;2023-02-23T00:32:16;101401.09;;;-1.88;68.58
76726;BME280;65651;53.154;17.916;2023-02-23T00:34:47;101398.83;;;-1.88;68.68
76726;BME280;65651;53.154;17.916;2023-02-23T00:37:18;101399.40;;;-1.91;68.78
76726;BME280;65651;53.154;17.916;2023-02-23T00:39:49;101399.83;;;-1.93;68.72
76726;BME280;65651;53.154;17.916;2023-02-23T00:42:17;101400.27;;;-1.95;68.82
76726;BME280;65651;53.154;17.916;2023-02-23T00:44:45;101401.02;;;-1.98;68.85
76726;BME280;65651;53.154;17.916;2023-02-23T00:47:17;101403.25;;;-2.01;69.03
76726;BME280;65651;53.154;17.916;2023-02-23T00:49:45;101406.11;;;-2.02;69.01
76726;BME280;65651;53.154;17.916;2023-02-23T00:52:12;101408.27;;;-2.04;69.01
76726;BME280;65651;53.154;17.916;2023-02-23T00:54:40;101403.23;;;-2.06;69.05
76726;BME280;65651;53.154;17.916;2023-02-23T00:57:08;101403.46;;;-2.08;69.21
76726;BME280;65651;53.154;17.916;2023-02-23T00:59:35;101400.68;;;-2.09;69.31
76726;BME280;65651;53.154;17.916;2023-02-23T01:02:03;101397.38;;;-2.10;69.23
76726;BME280;65651;53.154;17.916;2023-02-23T01:04:31;101393.91;;;-2.12;69.22
76726;BME280;65651;53.154;17.916;2023-02-23T01:06:58;101393.27;;;-2.13;69.39
76726;BME280;65651;53.154;17.916;2023-02-23T01:09:28;101394.73;;;-2.16;69.43
76726;BME280;65651;53.154;17.916;2023-02-23T01:11:56;101395.04;;;-2.21;69.46
76726;BME280;65651;53.154;17.916;2023-02-23T01:14:23;101394.45;;;-2.24;69.65
76726;BME280;65651;53.154;17.916;2023-02-23T01:16:51;101395.05;;;-2.27;69.80
76726;BME280;65651;53.154;17.916;2023-02-23T01:19:19;101397.22;;;-2.29;69.79
76726;BME280;65651;53.154;17.916;2023-02-23T01:21:49;101397.42;;;-2.30;69.93
76726;BME280;65651;53.154;17.916;2023-02-23T01:24:17;101395.50;;;-2.30;69.98
76726;BME280;65651;53.154;17.916;2023-02-23T01:26:46;101392.55;;;-2.31;69.86
76726;BME280;65651;53.154;17.916;2023-02-23T01:29:16;101389.98;;;-2.28;70.12
76726;BME280;65651;53.154;17.916;2023-02-23T01:31:50;101389.60;;;-2.26;70.02
76726;BME280;65651;53.154;17.916;2023-02-23T01:34:20;101387.48;;;-2.26;70.05
76726;BME280;65651;53.154;17.916;2023-02-23T01:36:48;101385.91;;;-2.27;70.27
76726;BME280;65651;53.154;17.916;2023-02-23T01:39:18;101383.13;;;-2.28;70.32
76726;BME280;65651;53.154;17.916;2023-02-23T01:41:46;101381.77;;;-2.30;70.45
76726;BME280;65651;53.154;17.916;2023-02-23T01:46:46;101374.67;;;-2.33;70.54
76726;BME280;65651;53.154;17.916;2023-02-23T01:49:22;101373.02;;;-2.36;70.65
76726;BME280;65651;53.154;17.916;2023-02-23T01:51:58;101371.62;;;-2.37;70.66
76726;BME280;65651;53.154;17.916;2023-02-23T01:54:38;101371.04;;;-2.35;70.58
76726;BME280;65651;53.154;17.916;2023-02-23T01:57:12;101364.16;;;-2.35;70.81
76726;BME280;65651;53.154;17.916;2023-02-23T01:59:45;101361.83;;;-2.32;70.84
76726;BME280;65651;53.154;17.916;2023-02-23T02:02:15;101355.44;;;-2.31;71.00
76726;BME280;65651;53.154;17.916;2023-02-23T02:04:43;101357.64;;;-2.29;70.93
76726;BME280;65651;53.154;17.916;2023-02-23T02:07:20;101351.10;;;-2.27;70.89
76726;BME280;65651;53.154;17.916;2023-02-23T02:09:54;101349.84;;;-2.26;70.95
76726;BME280;65651;53.154;17.916;2023-02-23T02:12:38;101351.73;;;-2.25;71.06
76726;BME280;65651;53.154;17.916;2023-02-23T02:15:10;101342.44;;;-2.25;71.10
76726;BME280;65651;53.154;17.916;2023-02-23T02:34:44;101334.34;;;-2.13;71.27
76726;BME280;65651;53.154;17.916;2023-02-23T02:40:25;101330.62;;;-2.13;71.37
76726;BME280;65651;53.154;17.916;2023-02-23T02:45:29;101327.45;;;-2.12;71.43
76726;BME280;65651;53.154;17.916;2023-02-23T02:50:53;101329.34;;;-2.11;71.35
76726;BME280;65651;53.154;17.916;2023-02-23T02:56:05;101328.67;;;-2.12;71.53
76726;BME280;65651;53.154;17.916;2023-02-23T02:58:38;101324.34;;;-2.14;71.72
76726;BME280;65651;53.154;17.916;2023-02-23T03:01:14;101325.09;;;-2.16;71.62
76726;BME280;65651;53.154;17.916;2023-02-23T03:04:16;101324.79;;;-2.18;71.68
76726;BME280;65651;53.154;17.916;2023-02-23T03:07:30;101324.83;;;-2.19;71.68
76726;BME280;65651;53.154;17.916;2023-02-23T03:16:14;101323.83;;;-2.15;71.70
76726;BME280;65651;53.154;17.916;2023-02-23T03:19:41;101321.05;;;-2.17;71.89
76726;BME280;65651;53.154;17.916;2023-02-23T03:22:38;101320.59;;;-2.19;71.86
76726;BME280;65651;53.154;17.916;2023-02-23T03:32:52;101309.77;;;-2.21;72.06
76726;BME280;65651;53.154;17.916;2023-02-23T03:38:40;101306.47;;;-2.17;71.91
76726;BME280;65651;53.154;17.916;2023-02-23T03:41:30;101305.02;;;-2.16;72.14
76726;BME280;65651;53.154;17.916;2023-02-23T03:44:24;101303.23;;;-2.14;72.10
76726;BME280;65651;53.154;17.916;2023-02-23T03:47:14;101299.20;;;-2.15;72.10
76726;BME280;65651;53.154;17.916;2023-02-23T03:50:05;101296.45;;;-2.17;72.13
76726;BME280;65651;53.154;17.916;2023-02-23T03:52:55;101292.67;;;-2.20;72.10
76726;BME280;65651;53.154;17.916;2023-02-23T03:55:49;101289.54;;;-2.20;72.18
76726;BME280;65651;53.154;17.916;2023-02-23T03:58:40;101284.96;;;-2.21;72.17
76726;BME280;65651;53.154;17.916;2023-02-23T04:01:27;101284.25;;;-2.20;72.15
76726;BME280;65651;53.154;17.916;2023-02-23T04:04:15;101280.29;;;-2.18;72.12
76726;BME280;65651;53.154;17.916;2023-02-23T04:07:02;101276.21;;;-2.17;72.20
76726;BME280;65651;53.154;17.916;2023-02-23T04:09:52;101271.66;;;-2.18;72.22
76726;BME280;65651;53.154;17.916;2023-02-23T04:13:12;101271.39;;;-2.20;72.31
76726;BME280;65651;53.154;17.916;2023-02-23T04:18:29;101269.31;;;-2.21;72.24
76726;BME280;65651;53.154;17.916;2023-02-23T04:20:59;101268.80;;;-2.21;72.49
76726;BME280;65651;53.154;17.916;2023-02-23T04:23:27;101266.34;;;-2.22;72.20
76726;BME280;65651;53.154;17.916;2023-02-23T04:25:55;101264.92;;;-2.21;72.21
76726;BME280;65651;53.154;17.916;2023-02-23T04:28:25;101261.36;;;-2.19;72.27
76726;BME280;65651;53.154;17.916;2023-02-23T04:30:56;101262.55;;;-2.19;72.40
76726;BME280;65651;53.154;17.916;2023-02-23T04:33:23;101266.21;;;-2.17;72.29
76726;BME280;65651;53.154;17.916;2023-02-23T04:35:53;101264.98;;;-2.17;72.26
76726;BME280;65651;53.154;17.916;2023-02-23T04:38:22;101260.11;;;-2.19;72.28
76726;BME280;65651;53.154;17.916;2023-02-23T04:40:50;101259.29;;;-2.20;72.36
76726;BME280;65651;53.154;17.916;2023-02-23T04:43:20;101258.42;;;-2.21;72.49
76726;BME280;65651;53.154;17.916;2023-02-23T04:45:47;101254.20;;;-2.21;72.36
76726;BME280;65651;53.154;17.916;2023-02-23T04:48:15;101252.20;;;-2.19;72.20
76726;BME280;65651;53.154;17.916;2023-02-23T04:50:42;101248.58;;;-2.16;72.33
76726;BME280;65651;53.154;17.916;2023-02-23T04:53:10;101246.42;;;-2.14;72.19
76726;BME280;65651;53.154;17.916;2023-02-23T04:55:40;101245.86;;;-2.13;72.45
76726;BME280;65651;53.154;17.916;2023-02-23T04:58:09;101241.81;;;-2.12;72.37
76726;BME280;65651;53.154;17.916;2023-02-23T05:00:40;101241.97;;;-2.12;72.34
76726;BME280;65651;53.154;17.916;2023-02-23T05:03:08;101235.69;;;-2.14;72.52
76726;BME280;65651;53.154;17.916;2023-02-23T05:05:37;101234.63;;;-2.13;72.45
76726;BME280;65651;53.154;17.916;2023-02-23T05:08:09;101232.88;;;-2.13;72.51
76726;BME280;65651;53.154;17.916;2023-02-23T05:10:36;101231.48;;;-2.14;72.40
76726;BME280;65651;53.154;17.916;2023-02-23T05:13:04;101226.17;;;-2.13;72.34
76726;BME280;65651;53.154;17.916;2023-02-23T05:15:31;101222.95;;;-2.11;72.33
76726;BME280;65651;53.154;17.916;2023-02-23T05:17:59;101221.65;;;-2.10;72.66
76726;BME280;65651;53.154;17.916;2023-02-23T05:20:26;101220.22;;;-2.08;72.38
76726;BME280;65651;53.154;17.916;2023-02-23T05:22:54;101216.66;;;-2.07;72.44
76726;BME280;65651;53.154;17.916;2023-02-23T05:25:22;101215.47;;;-2.08;72.34
76726;BME280;65651;53.154;17.916;2023-02-23T05:27:49;101212.33;;;-2.10;72.34
76726;BME280;65651;53.154;17.916;2023-02-23T05:30:17;101211.09;;;-2.10;72.58
76726;BME280;65651;53.154;17.916;2023-02-23T05:32:47;101209.53;;;-2.10;72.56
76726;BME280;65651;53.154;17.916;2023-02-23T05:35:15;101209.32;;;-2.09;72.37
76726;BME280;65651;53.154;17.916;2023-02-23T05:37:43;101208.96;;;-2.09;72.34
76726;BME280;65651;53.154;17.916;2023-02-23T05:40:11;101208.39;;;-2.07;72.39
76726;BME280;65651;53.154;17.916;2023-02-23T05:42:38;101206.60;;;-2.06;72.41
76726;BME280;65651;53.154;17.916;2023-02-23T05:45:06;101205.34;;;-2.06;72.29
76726;BME280;65651;53.154;17.916;2023-02-23T05:47:34;101204.48;;;-2.06;72.43
76726;BME280;65651;53.154;17.916;2023-02-23T05:50:06;101203.60;;;-2.06;72.35
76726;BME280;65651;53.154;17.916;2023-02-23T05:52:41;101202.58;;;-2.07;72.46
76726;BME280;65651;53.154;17.916;2023-02-23T05:55:10;101202.59;;;-2.08;72.34
76726;BME280;65651;53.154;17.916;2023-02-23T05:57:40;101200.84;;;-2.07;72.55
76726;BME280;65651;53.154;17.916;2023-02-23T06:00:09;101204.83;;;-2.06;72.40
76726;BME280;65651;53.154;17.916;2023-02-23T06:02:36;101202.52;;;-2.05;72.45
76726;BME280;65651;53.154;17.916;2023-02-23T06:05:04;101204.19;;;-2.03;72.37
76726;BME280;65651;53.154;17.916;2023-02-23T06:07:32;101201.01;;;-2.02;72.40
76726;BME280;65651;53.154;17.916;2023-02-23T06:09:59;101198.14;;;-2.01;72.38
76726;BME280;65651;53.154;17.916;2023-02-23T06:12:27;101199.64;;;-1.98;72.36
76726;BME280;65651;53.154;17.916;2023-02-23T06:14:54;101194.98;;;-1.96;72.34
76726;BME280;65651;53.154;17.916;2023-02-23T06:17:23;101199.12;;;-1.93;72.23
76726;BME280;65651;53.154;17.916;2023-02-23T06:19:51;101198.48;;;-1.90;72.45
76726;BME280;65651;53.154;17.916;2023-02-23T06:22:19;101194.86;;;-1.87;72.26
76726;BME280;65651;53.154;17.916;2023-02-23T06:24:46;101197.37;;;-1.83;72.41
76726;BME280;65651;53.154;17.916;2023-02-23T06:27:16;101197.39;;;-1.79;72.17
76726;BME280;65651;53.154;17.916;2023-02-23T06:29:44;101193.48;;;-1.73;72.07
76726;BME280;65651;53.154;17.916;2023-02-23T06:32:11;101187.84;;;-1.68;72.18
76726;BME280;65651;53.154;17.916;2023-02-23T06:34:45;101191.11;;;-1.60;72.21
76726;BME280;65651;53.154;17.916;2023-02-23T06:37:12;101190.17;;;-1.54;72.19
76726;BME280;65651;53.154;17.916;2023-02-23T06:39:40;101190.54;;;-1.45;72.03
76726;BME280;65651;53.154;17.916;2023-02-23T06:42:07;101190.33;;;-1.34;71.97
76726;BME280;65651;53.154;17.916;2023-02-23T06:44:34;101188.11;;;-1.26;71.87
76726;BME280;65651;53.154;17.916;2023-02-23T06:47:03;101182.39;;;-1.15;71.85
76726;BME280;65651;53.154;17.916;2023-02-23T06:49:34;101184.61;;;-1.03;71.65
76726;BME280;65651;53.154;17.916;2023-02-23T06:52:01;101186.95;;;-0.95;71.68
76726;BME280;65651;53.154;17.916;2023-02-23T06:54:28;101181.14;;;-0.87;71.59
76726;BME280;65651;53.154;17.916;2023-02-23T06:56:56;101179.16;;;-0.76;71.52
76726;BME280;65651;53.154;17.916;2023-02-23T06:59:25;101174.70;;;-0.66;71.38
76726;BME280;65651;53.154;17.916;2023-02-23T07:01:54;101169.11;;;-0.59;71.25
76726;BME280;65651;53.154;17.916;2023-02-23T07:04:22;101169.80;;;-0.50;71.13
76726;BME280;65651;53.154;17.916;2023-02-23T07:06:49;101163.13;;;-0.37;71.07
76726;BME280;65651;53.154;17.916;2023-02-23T07:09:17;101170.28;;;-0.27;70.90
76726;BME280;65651;53.154;17.916;2023-02-23T07:11:44;101170.31;;;-0.19;70.78
76726;BME280;65651;53.154;17.916;2023-02-23T07:14:12;101171.58;;;-0.11;70.60
76726;BME280;65651;53.154;17.916;2023-02-23T07:16:40;101169.40;;;-0.01;70.48
76726;BME280;65651;53.154;17.916;2023-02-23T07:19:07;101167.30;;;0.10;70.43
76726;BME280;65651;53.154;17.916;2023-02-23T07:21:38;101161.94;;;0.24;70.31
76726;BME280;65651;53.154;17.916;2023-02-23T07:24:06;101160.08;;;0.38;70.19
76726;BME280;65651;53.154;17.916;2023-02-23T07:26:34;101164.17;;;0.53;70.04
76726;BME280;65651;53.154;17.916;2023-02-23T07:29:02;101163.84;;;0.69;69.67
76726;BME280;65651;53.154;17.916;2023-02-23T07:31:29;101163.23;;;0.78;69.64
76726;BME280;65651;53.154;17.916;2023-02-23T07:33:56;101160.84;;;0.92;69.58
76726;BME280;65651;53.154;17.916;2023-02-23T07:36:24;101157.14;;;1.03;69.43
76726;BME280;65651;53.154;17.916;2023-02-23T07:38:51;101157.89;;;1.13;68.90
76726;BME280;65651;53.154;17.916;2023-02-23T07:41:18;101156.67;;;1.20;68.74
76726;BME280;65651;53.154;17.916;2023-02-23T07:43:46;101153.47;;;1.32;68.63
76726;BME280;65651;53.154;17.916;2023-02-23T07:46:13;101155.04;;;1.47;68.68
76726;BME280;65651;53.154;17.916;2023-02-23T07:48:42;101151.75;;;1.56;68.43
76726;BME280;65651;53.154;17.916;2023-02-23T07:51:12;101148.42;;;1.66;68.37
76726;BME280;65651;53.154;17.916;2023-02-23T07:53:42;101149.47;;;1.80;68.06
76726;BME280;65651;53.154;17.916;2023-02-23T07:56:10;101148.63;;;1.90;67.88
76726;BME280;65651;53.154;17.916;2023-02-23T07:58:42;101147.98;;;2.00;68.09
76726;BME280;65651;53.154;17.916;2023-02-23T08:01:11;101144.04;;;2.11;67.68
76726;BME280;65651;53.154;17.916;2023-02-23T08:03:39;101146.66;;;2.22;67.14
76726;BME280;65651;53.154;17.916;2023-02-23T08:06:07;101140.66;;;2.28;67.46
76726;BME280;65651;53.154;17.916;2023-02-23T08:08:34;101140.95;;;2.33;66.77
76726;BME280;65651;53.154;17.916;2023-02-23T08:11:03;101136.84;;;2.33;66.67
76726;BME280;65651;53.154;17.916;2023-02-23T08:13:31;101133.04;;;2.35;66.57
76726;BME280;65651;53.154;17.916;2023-02-23T08:16:00;101127.73;;;2.45;66.25
76726;BME280;65651;53.154;17.916;2023-02-23T08:18:27;101122.67;;;2.54;66.70
76726;BME280;65651;53.154;17.916;2023-02-23T08:21:02;101121.93;;;2.60;66.32
76726;BME280;65651;53.154;17.916;2023-02-23T08:23:31;101117.23;;;2.62;66.37
76726;BME280;65651;53.154;17.916;2023-02-23T08:25:59;101117.95;;;2.72;66.16
76726;BME280;65651;53.154;17.916;2023-02-23T08:28:27;101114.52;;;2.80;66.11
76726;BME280;65651;53.154;17.916;2023-02-23T08:30:56;101119.88;;;2.85;65.58
76726;BME280;65651;53.154;17.916;2023-02-23T08:33:26;101111.10;;;2.93;65.54
76726;BME280;65651;53.154;17.916;2023-02-23T08:35:53;101105.52;;;3.04;65.59
76726;BME280;65651;53.154;17.916;2023-02-23T08:38:24;101099.98;;;3.11;65.03
76726;BME280;65651;53.154;17.916;2023-02-23T08:40:51;101091.86;;;3.14;64.97
76726;BME280;65651;53.154;17.916;2023-02-23T08:43:19;101091.60;;;3.18;64.65
76726;BME280;65651;53.154;17.916;2023-02-23T08:45:46;101087.75;;;3.21;64.63
76726;BME280;65651;53.154;17.916;2023-02-23T08:48:15;101088.06;;;3.28;64.48
76726;BME280;65651;53.154;17.916;2023-02-23T08:50:42;101083.13;;;3.33;64.44
76726;BME280;65651;53.154;17.916;2023-02-23T08:53:10;101080.91;;;3.44;64.39
76726;BME280;65651;53.154;17.916;2023-02-23T08:55:37;101077.30;;;3.54;64.05
76726;BME280;65651;53.154;17.916;2023-02-23T08:58:07;101075.25;;;3.62;64.02
76726;BME280;65651;53.154;17.916;2023-02-23T09:00:37;101076.89;;;3.73;64.07
76726;BME280;65651;53.154;17.916;2023-02-23T09:03:05;101069.80;;;3.82;63.68
76726;BME280;65651;53.154;17.916;2023-02-23T09:05:36;101065.52;;;3.91;63.69
76726;BME280;65651;53.154;17.916;2023-02-23T09:08:04;101064.79;;;3.97;63.26
76726;BME280;65651;53.154;17.916;2023-02-23T09:10:39;101071.48;;;4.01;63.19
76726;BME280;65651;53.154;17.916;2023-02-23T09:13:10;101068.77;;;4.05;63.30
76726;BME280;65651;53.154;17.916;2023-02-23T09:15:39;101062.30;;;4.12;63.09
76726;BME280;65651;53.154;17.916;2023-02-23T09:18:10;101057.53;;;4.14;62.89
76726;BME280;65651;53.154;17.916;2023-02-23T09:20:42;101053.26;;;4.17;62.67
76726;BME280;65651;53.154;17.916;2023-02-23T09:23:11;101052.94;;;4.17;62.64
76726;BME280;65651;53.154;17.916;2023-02-23T09:25:40;101051.65;;;4.20;62.61
76726;BME280;65651;53.154;17.916;2023-02-23T09:28:17;101053.27;;;4.28;62.64
76726;BME280;65651;53.154;17.916;2023-02-23T09:30:46;101051.88;;;4.37;62.27
76726;BME280;65651;53.154;17.916;2023-02-23T09:33:14;101050.80;;;4.37;62.34
76726;BME280;65651;53.154;17.916;2023-02-23T09:35:41;101053.23;;;4.41;62.32
76726;BME280;65651;53.154;17.916;2023-02-23T09:38:08;101045.54;;;4.47;62.25
76726;BME280;65651;53.154;17.916;2023-02-23T09:40:46;101040.58;;;4.52;62.28
76726;BME280;65651;53.154;17.916;2023-02-23T09:48:54;101036.39;;;4.74;61.98
76726;BME280;65651;53.154;17.916;2023-02-23T09:51:23;101038.11;;;4.80;61.84
76726;BME280;65651;53.154;17.916;2023-02-23T09:53:54;101038.92;;;4.87;61.82
76726;BME280;65651;53.154;17.916;2023-02-23T09:56:36;101036.60;;;4.87;61.29
76726;BME280;65651;53.154;17.916;2023-02-23T09:59:05;101039.46;;;4.81;61.09
76726;BME280;65651;53.154;17.916;2023-02-23T10:01:56;101037.45;;;4.85;61.05
76726;BME280;65651;53.154;17.916;2023-02-23T10:04:27;101029.80;;;4.93;61.20
76726;BME280;65651;53.154;17.916;2023-02-23T10:12:39;101032.13;;;5.01;60.74
76726;BME280;65651;53.154;17.916;2023-02-23T10:18:20;101032.42;;;5.21;60.45
76726;BME280;65651;53.154;17.916;2023-02-23T10:21:05;101028.52;;;5.28;60.53
76726;BME280;65651;53.154;17.916;2023-02-23T10:23:41;101024.70;;;5.32;60.29
76726;BME280;65651;53.154;17.916;2023-02-23T10:26:17;101026.09;;;5.38;60.59
76726;BME280;65651;53.154;17.916;2023-02-23T10:28:47;101022.05;;;5.48;60.20
76726;BME280;65651;53.154;17.916;2023-02-23T10:31:33;101017.82;;;5.53;60.17
76726;BME280;65651;53.154;17.916;2023-02-23T10:34:12;101013.63;;;5.56;59.85
76726;BME280;65651;53.154;17.916;2023-02-23T10:36:56;101016.44;;;5.57;59.94
76726;BME280;65651;53.154;17.916;2023-02-23T10:39:25;101008.48;;;5.56;60.08
76726;BME280;65651;53.154;17.916;2023-02-23T10:41:53;101007.34;;;5.57;59.61
76726;BME280;65651;53.154;17.916;2023-02-23T10:44:23;101003.92;;;5.58;59.73
76726;BME280;65651;53.154;17.916;2023-02-23T10:46:59;100995.84;;;5.59;59.73
76726;BME280;65651;53.154;17.916;2023-02-23T10:49:55;100994.91;;;5.54;59.28
76726;BME280;65651;53.154;17.916;2023-02-23T10:54:59;100985.09;;;5.47;59.28
76726;BME280;65651;53.154;17.916;2023-02-23T10:57:28;100982.13;;;5.46;59.37
76726;BME280;65651;53.154;17.916;2023-02-23T11:02:25;100981.75;;;5.44;59.53
76726;BME280;65651;53.154;17.916;2023-02-23T11:04:56;100975.73;;;5.46;59.51
76726;BME280;65651;53.154;17.916;2023-02-23T11:07:26;100974.48;;;5.54;59.47
76726;BME280;65651;53.154;17.916;2023-02-23T11:09:59;100969.38;;;5.55;59.32
76726;BME280;65651;53.154;17.916;2023-02-23T11:12:39;100965.84;;;5.55;59.24
76726;BME280;65651;53.154;17.916;2023-02-23T11:17:57;100959.25;;;5.62;59.00
76726;BME280;65651;53.154;17.916;2023-02-23T11:20:36;100956.52;;;5.67;58.87
76726;BME280;65651;53.154;17.916;2023-02-23T11:25:43;100948.91;;;5.73;58.89
76726;BME280;65651;53.154;17.916;2023-02-23T11:28:29;100948.46;;;5.80;59.03
76726;BME280;65651;53.154;17.916;2023-02-23T11:31:27;100945.73;;;5.88;58.93
76726;BME280;65651;53.154;17.916;2023-02-23T11:33:57;100940.05;;;5.93;58.84
76726;BME280;65651;53.154;17.916;2023-02-23T11:36:33;100937.33;;;6.04;58.73
76726;BME280;65651;53.154;17.916;2023-02-23T11:39:18;100926.22;;;6.10;58.66
76726;BME280;65651;53.154;17.916;2023-02-23T11:42:16;100918.00;;;6.13;58.44
76726;BME280;65651;53.154;17.916;2023-02-23T11:47:20;100905.81;;;6.18;58.40
76726;BME280;65651;53.154;17.916;2023-02-23T11:49:49;100901.40;;;6.23;58.20
76726;BME280;65651;53.154;17.916;2023-02-23T11:52:20;100895.08;;;6.32;58.37
76726;BME280;65651;53.154;17.916;2023-02-23T11:54:57;100886.81;;;6.44;58.42
76726;BME280;65651;53.154;17.916;2023-02-23T11:57:33;100884.90;;;6.58;58.25
76726;BME280;65651;53.154;17.916;2023-02-23T12:00:19;100875.78;;;6.75;58.18
76726;BME280;65651;53.154;17.916;2023-02-23T12:02:52;100874.68;;;6.92;57.66
76726;BME280;65651;53.154;17.916;2023-02-23T12:05:29;100869.05;;;7.10;57.89
76726;BME280;65651;53.154;17.916;2023-02-23T12:08:10;100868.48;;;7.19;57.18
76726;BME280;65651;53.154;17.916;2023-02-23T12:10:42;100862.13;;;7.25;57.10
76726;BME280;65651;53.154;17.916;2023-02-23T12:21:38;100842.52;;;7.44;57.14
76726;BME280;65651;53.154;17.916;2023-02-23T12:26:51;100834.27;;;7.50;56.69
76726;BME280;65651;53.154;17.916;2023-02-23T12:32:18;100825.86;;;7.67;56.47
76726;BME280;65651;53.154;17.916;2023-02-23T12:39:55;100814.27;;;7.66;55.89
76726;BME280;65651;53.154;17.916;2023-02-23T12:42:34;100814.14;;;7.72;55.93
76726;BME280;65651;53.154;17.916;2023-02-23T12:48:45;100810.73;;;7.93;55.78
76726;BME280;65651;53.154;17.916;2023-02-23T12:51:37;100803.63;;;7.94;55.79
76726;BME280;65651;53.154;17.916;2023-02-23T12:54:03;100797.31;;;7.95;55.53
76726;BME280;65651;53.154;17.916;2023-02-23T13:04:49;100776.48;;;7.78;55.38
76726;BME280;65651;53.154;17.916;2023-02-23T13:10:31;100764.04;;;7.67;55.78
76726;BME280;65651;53.154;17.916;2023-02-23T13:13:25;100755.92;;;7.68;55.95
76726;BME280;65651;53.154;17.916;2023-02-23T13:21:55;100734.98;;;7.46;55.70
76726;BME280;65651;53.154;17.916;2023-02-23T13:24:35;100732.60;;;7.38;56.44
76726;BME280;65651;53.154;17.916;2023-02-23T13:27:18;100727.55;;;7.27;56.16
76726;BME280;65651;53.154;17.916;2023-02-23T13:29:49;100721.61;;;7.19;56.36
76726;BME280;65651;53.154;17.916;2023-02-23T13:32:32;100725.89;;;7.12;56.28
76726;BME280;65651;53.154;17.916;2023-02-23T13:35:02;100720.08;;;7.09;56.31
76726;BME280;65651;53.154;17.916;2023-02-23T13:41:02;100718.10;;;6.95;56.47
76726;BME280;65651;53.154;17.916;2023-02-23T13:43:44;100719.36;;;6.93;56.60
76726;BME280;65651;53.154;17.916;2023-02-23T13:46:49;100715.91;;;6.87;56.82
76726;BME280;65651;53.154;17.916;2023-02-23T13:52:37;100703.44;;;6.71;57.05
76726;BME280;65651;53.154;17.916;2023-02-23T13:58:05;100699.64;;;6.67;57.35
76726;BME280;65651;53.154;17.916;2023-02-23T14:00:37;100700.89;;;6.69;57.60
76726;BME280;65651;53.154;17.916;2023-02-23T14:03:06;100696.32;;;6.70;57.88
76726;BME280;65651;53.154;17.916;2023-02-23T14:05:42;100694.98;;;6.72;57.93
76726;BME280;65651;53.154;17.916;2023-02-23T14:08:22;100695.11;;;6.70;58.08
76726;BME280;65651;53.154;17.916;2023-02-23T14:10:54;100694.16;;;6.66;57.66
76726;BME280;65651;53.154;17.916;2023-02-23T14:13:27;100695.20;;;6.64;57.97
76726;BME280;65651;53.154;17.916;2023-02-23T14:16:17;100694.05;;;6.65;58.22
76726;BME280;65651;53.154;17.916;2023-02-23T14:19:08;100691.21;;;6.65;58.12
76726;BME280;65651;53.154;17.916;2023-02-23T14:21:44;100696.48;;;6.62;58.77
76726;BME280;65651;53.154;17.916;2023-02-23T14:24:21;100689.60;;;6.60;58.60
76726;BME280;65651;53.154;17.916;2023-02-23T14:27:43;100683.71;;;6.63;58.60
76726;BME280;65651;53.154;17.916;2023-02-23T14:32:46;100683.20;;;6.60;58.91
76726;BME280;65651;53.154;17.916;2023-02-23T14:40:40;100674.85;;;6.46;59.25
76726;BME280;65651;53.154;17.916;2023-02-23T14:43:31;100675.36;;;6.39;59.57
76726;BME280;65651;53.154;17.916;2023-02-23T14:46:00;100672.15;;;6.30;59.61
76726;BME280;65651;53.154;17.916;2023-02-23T14:48:32;100672.13;;;6.24;59.74
76726;BME280;65651;53.154;17.916;2023-02-23T14:51:38;100672.66;;;6.22;59.93
76726;BME280;65651;53.154;17.916;2023-02-23T14:54:21;100673.54;;;6.19;60.01
76726;BME280;65651;53.154;17.916;2023-02-23T14:56:54;100668.80;;;6.13;59.77
76726;BME280;65651;53.154;17.916;2023-02-23T14:59:35;100665.11;;;6.10;60.21
76726;BME280;65651;53.154;17.916;2023-02-23T15:02:08;100664.45;;;6.05;60.18
76726;BME280;65651;53.154;17.916;2023-02-23T15:04:36;100662.93;;;6.02;60.34
76726;BME280;65651;53.154;17.916;2023-02-23T15:09:52;100653.33;;;5.94;60.57
76726;BME280;65651;53.154;17.916;2023-02-23T15:12:24;100649.73;;;5.89;60.53
76726;BME280;65651;53.154;17.916;2023-02-23T15:15:00;100646.41;;;5.86;60.69
76726;BME280;65651;53.154;17.916;2023-02-23T15:17:31;100644.25;;;5.82;60.90
76726;BME280;65651;53.154;17.916;2023-02-23T15:20:05;100640.08;;;5.78;61.11
76726;BME280;65651;53.154;17.916;2023-02-23T15:22:36;100636.02;;;5.78;61.18
76726;BME280;65651;53.154;17.916;2023-02-23T15:25:14;100634.92;;;5.76;61.17
76726;BME280;65651;53.154;17.916;2023-02-23T15:27:43;100627.59;;;5.71;61.21
76726;BME280;65651;53.154;17.916;2023-02-23T15:30:21;100627.75;;;5.67;61.62
76726;BME280;65651;53.154;17.916;2023-02-23T15:32:58;100619.52;;;5.60;61.67
76726;BME280;65651;53.154;17.916;2023-02-23T15:35:27;100616.35;;;5.55;61.97